sensor_id;sensor_type;location;lat;lon;timestamp;P1;durP1;ratioP1;P2;durP2;ratioP2
73487;SDS011;61721;42.206;25.320;2022-09-09T00:01:46;4.72;;;1.83;;
73487;SDS011;61721;42.206;25.320;2022-09-09T00:04:24;3.97;;;1.50;;
73487;SDS011;61721;42.206;25.320;2022-09-09T00:06:58;4.57;;;1.90;;
73487;SDS011;61721;42.206;25.320;2022-09-09T00:09:31;5.85;;;1.65;;
73487;SDS011;61721;42.206;25.320;2022-09-09T00:12:10;4.95;;;1.60;;
73487;SDS011;61721;42.206;25.320;2022-09-09T00:14:43;4.07;;;1.70;;
73487;SDS011;61721;42.206;25.320;2022-09-09T00:17:21;5.80;;;1.70;;
73487;SDS011;61721;42.206;25.320;2022-09-09T00:20:11;4.97;;;1.55;;
73487;SDS011;61721;42.206;25.320;2022-09-09T00:22:43;3.55;;;1.50;;
73487;SDS011;61721;42.206;25.320;2022-09-09T00:25:19;3.50;;;1.55;;
73487;SDS011;61721;42.206;25.320;2022-09-09T00:27:56;6.13;;;1.80;;
73487;SDS011;61721;42.206;25.320;2022-09-09T00:30:25;4.93;;;1.40;;
73487;SDS011;61721;42.206;25.320;2022-09-09T00:32:59;4.53;;;1.80;;
73487;SDS011;61721;42.206;25.320;2022-09-09T00:35:32;3.50;;;1.50;;
73487;SDS011;61721;42.206;25.320;2022-09-09T00:38:05;5.50;;;1.90;;
73487;SDS011;61721;42.206;25.320;2022-09-09T00:40:43;4.43;;;1.77;;
73487;SDS011;61721;42.206;25.320;2022-09-09T00:43:21;4.10;;;1.80;;
73487;SDS011;61721;42.206;25.320;2022-09-09T00:46:06;5.63;;;1.80;;
73487;SDS011;61721;42.206;25.320;2022-09-09T00:48:50;4.15;;;1.30;;
73487;SDS011;61721;42.206;25.320;2022-09-09T00:51:28;3.20;;;1.40;;
73487;SDS011;61721;42.206;25.320;2022-09-09T00:54:12;5.22;;;1.75;;
73487;SDS011;61721;42.206;25.320;2022-09-09T00:56:53;4.00;;;1.40;;
73487;SDS011;61721;42.206;25.320;2022-09-09T00:59:32;5.50;;;1.83;;
73487;SDS011;61721;42.206;25.320;2022-09-09T01:02:13;3.65;;;1.60;;
73487;SDS011;61721;42.206;25.320;2022-09-09T01:04:49;3.97;;;1.25;;
73487;SDS011;61721;42.206;25.320;2022-09-09T01:07:19;3.90;;;1.40;;
73487;SDS011;61721;42.206;25.320;2022-09-09T01:09:57;3.08;;;1.23;;
73487;SDS011;61721;42.206;25.320;2022-09-09T01:12:33;4.47;;;1.45;;
73487;SDS011;61721;42.206;25.320;2022-09-09T01:15:10;5.15;;;1.58;;
73487;SDS011;61721;42.206;25.320;2022-09-09T01:17:46;3.42;;;1.63;;
73487;SDS011;61721;42.206;25.320;2022-09-09T01:20:20;5.38;;;1.42;;
73487;SDS011;61721;42.206;25.320;2022-09-09T01:23:00;3.22;;;1.30;;
73487;SDS011;61721;42.206;25.320;2022-09-09T01:28:37;4.18;;;1.60;;
73487;SDS011;61721;42.206;25.320;2022-09-09T01:31:09;5.55;;;1.50;;
73487;SDS011;61721;42.206;25.320;2022-09-09T01:33:42;4.03;;;1.50;;
73487;SDS011;61721;42.206;25.320;2022-09-09T01:36:11;3.10;;;1.45;;
73487;SDS011;61721;42.206;25.320;2022-09-09T01:38:42;3.65;;;1.38;;
73487;SDS011;61721;42.206;25.320;2022-09-09T01:41:12;3.50;;;1.50;;
73487;SDS011;61721;42.206;25.320;2022-09-09T01:43:41;3.88;;;1.42;;
73487;SDS011;61721;42.206;25.320;2022-09-09T01:46:09;4.78;;;1.55;;
73487;SDS011;61721;42.206;25.320;2022-09-09T01:48:40;5.20;;;2.15;;
73487;SDS011;61721;42.206;25.320;2022-09-09T01:51:10;4.57;;;1.48;;
73487;SDS011;61721;42.206;25.320;2022-09-09T01:53:38;3.05;;;1.33;;
73487;SDS011;61721;42.206;25.320;2022-09-09T01:58:47;3.95;;;1.50;;
73487;SDS011;61721;42.206;25.320;2022-09-09T02:01:30;4.28;;;1.52;;
73487;SDS011;61721;42.206;25.320;2022-09-09T02:04:12;3.10;;;1.40;;
73487;SDS011;61721;42.206;25.320;2022-09-09T02:06:51;3.50;;;1.63;;
73487;SDS011;61721;42.206;25.320;2022-09-09T02:09:24;5.07;;;1.45;;
73487;SDS011;61721;42.206;25.320;2022-09-09T02:11:55;4.88;;;1.50;;
73487;SDS011;61721;42.206;25.320;2022-09-09T02:14:32;3.72;;;1.50;;
73487;SDS011;61721;42.206;25.320;2022-09-09T02:17:07;6.90;;;1.42;;
73487;SDS011;61721;42.206;25.320;2022-09-09T02:19:39;3.00;;;1.23;;
73487;SDS011;61721;42.206;25.320;2022-09-09T02:22:13;3.38;;;1.25;;
73487;SDS011;61721;42.206;25.320;2022-09-09T02:24:43;6.38;;;1.52;;
73487;SDS011;61721;42.206;25.320;2022-09-09T02:27:12;3.45;;;1.65;;
73487;SDS011;61721;42.206;25.320;2022-09-09T02:29:44;6.82;;;1.98;;
73487;SDS011;61721;42.206;25.320;2022-09-09T02:32:14;3.40;;;1.40;;
73487;SDS011;61721;42.206;25.320;2022-09-09T02:34:45;3.50;;;1.30;;
73487;SDS011;61721;42.206;25.320;2022-09-09T02:37:17;4.55;;;1.50;;
73487;SDS011;61721;42.206;25.320;2022-09-09T02:39:49;3.60;;;1.60;;
73487;SDS011;61721;42.206;25.320;2022-09-09T02:42:17;4.55;;;1.40;;
73487;SDS011;61721;42.206;25.320;2022-09-09T02:44:47;3.80;;;1.65;;
73487;SDS011;61721;42.206;25.320;2022-09-09T02:47:25;3.47;;;1.50;;
73487;SDS011;61721;42.206;25.320;2022-09-09T02:50:00;3.33;;;1.60;;
73487;SDS011;61721;42.206;25.320;2022-09-09T02:52:38;3.10;;;1.42;;
73487;SDS011;61721;42.206;25.320;2022-09-09T02:55:28;3.78;;;1.60;;
73487;SDS011;61721;42.206;25.320;2022-09-09T02:58:04;3.17;;;1.40;;
73487;SDS011;61721;42.206;25.320;2022-09-09T03:00:40;4.32;;;1.65;;
73487;SDS011;61721;42.206;25.320;2022-09-09T03:03:08;4.65;;;2.00;;
73487;SDS011;61721;42.206;25.320;2022-09-09T03:05:37;4.43;;;1.77;;
73487;SDS011;61721;42.206;25.320;2022-09-09T03:08:07;3.30;;;1.42;;
73487;SDS011;61721;42.206;25.320;2022-09-09T03:10:35;5.93;;;1.52;;
73487;SDS011;61721;42.206;25.320;2022-09-09T03:13:04;4.20;;;1.60;;
73487;SDS011;61721;42.206;25.320;2022-09-09T03:15:33;5.32;;;1.40;;
73487;SDS011;61721;42.206;25.320;2022-09-09T03:18:03;5.38;;;1.60;;
73487;SDS011;61721;42.206;25.320;2022-09-09T03:20:31;5.25;;;1.65;;
73487;SDS011;61721;42.206;25.320;2022-09-09T03:23:00;3.80;;;1.50;;
73487;SDS011;61721;42.206;25.320;2022-09-09T03:25:29;3.78;;;1.60;;
73487;SDS011;61721;42.206;25.320;2022-09-09T03:27:58;3.97;;;1.70;;
73487;SDS011;61721;42.206;25.320;2022-09-09T03:30:27;7.88;;;1.95;;
73487;SDS011;61721;42.206;25.320;2022-09-09T03:32:56;3.05;;;1.40;;
73487;SDS011;61721;42.206;25.320;2022-09-09T03:35:26;4.00;;;1.50;;
73487;SDS011;61721;42.206;25.320;2022-09-09T03:37:56;4.03;;;1.60;;
73487;SDS011;61721;42.206;25.320;2022-09-09T03:40:25;3.20;;;1.55;;
73487;SDS011;61721;42.206;25.320;2022-09-09T03:42:53;4.75;;;1.60;;
73487;SDS011;61721;42.206;25.320;2022-09-09T03:45:22;7.00;;;1.63;;
73487;SDS011;61721;42.206;25.320;2022-09-09T03:47:51;4.57;;;1.85;;
73487;SDS011;61721;42.206;25.320;2022-09-09T03:50:20;7.35;;;1.80;;
73487;SDS011;61721;42.206;25.320;2022-09-09T03:52:51;5.28;;;1.73;;
73487;SDS011;61721;42.206;25.320;2022-09-09T03:55:31;3.75;;;1.60;;
73487;SDS011;61721;42.206;25.320;2022-09-09T03:58:01;5.53;;;1.70;;
73487;SDS011;61721;42.206;25.320;2022-09-09T04:00:34;4.38;;;1.80;;
73487;SDS011;61721;42.206;25.320;2022-09-09T04:03:02;6.65;;;1.98;;
73487;SDS011;61721;42.206;25.320;2022-09-09T04:05:32;8.25;;;1.90;;
73487;SDS011;61721;42.206;25.320;2022-09-09T04:08:02;4.47;;;1.90;;
73487;SDS011;61721;42.206;25.320;2022-09-09T04:10:30;6.95;;;2.03;;
73487;SDS011;61721;42.206;25.320;2022-09-09T04:12:59;5.15;;;1.92;;
73487;SDS011;61721;42.206;25.320;2022-09-09T04:15:27;7.93;;;1.90;;
73487;SDS011;61721;42.206;25.320;2022-09-09T04:17:56;6.30;;;2.00;;
73487;SDS011;61721;42.206;25.320;2022-09-09T04:20:24;15.18;;;2.40;;
73487;SDS011;61721;42.206;25.320;2022-09-09T04:22:52;7.25;;;1.92;;
73487;SDS011;61721;42.206;25.320;2022-09-09T04:25:22;4.70;;;1.63;;
73487;SDS011;61721;42.206;25.320;2022-09-09T04:27:53;4.40;;;1.83;;
73487;SDS011;61721;42.206;25.320;2022-09-09T04:30:21;6.53;;;1.95;;
73487;SDS011;61721;42.206;25.320;2022-09-09T04:32:50;9.00;;;2.72;;
73487;SDS011;61721;42.206;25.320;2022-09-09T04:35:19;7.55;;;1.95;;
73487;SDS011;61721;42.206;25.320;2022-09-09T04:37:47;5.95;;;1.90;;
73487;SDS011;61721;42.206;25.320;2022-09-09T04:40:16;5.97;;;1.90;;
73487;SDS011;61721;42.206;25.320;2022-09-09T04:42:46;4.53;;;1.83;;
73487;SDS011;61721;42.206;25.320;2022-09-09T04:45:14;8.15;;;1.92;;
73487;SDS011;61721;42.206;25.320;2022-09-09T04:47:43;8.15;;;2.42;;
73487;SDS011;61721;42.206;25.320;2022-09-09T04:50:11;6.50;;;1.85;;
73487;SDS011;61721;42.206;25.320;2022-09-09T04:52:40;5.82;;;1.80;;
73487;SDS011;61721;42.206;25.320;2022-09-09T04:55:08;8.43;;;1.83;;
73487;SDS011;61721;42.206;25.320;2022-09-09T04:57:37;7.47;;;2.17;;
73487;SDS011;61721;42.206;25.320;2022-09-09T05:00:07;5.25;;;1.73;;
73487;SDS011;61721;42.206;25.320;2022-09-09T05:02:37;4.22;;;1.60;;
73487;SDS011;61721;42.206;25.320;2022-09-09T05:05:06;5.60;;;1.73;;
73487;SDS011;61721;42.206;25.320;2022-09-09T05:07:34;10.90;;;1.73;;
73487;SDS011;61721;42.206;25.320;2022-09-09T05:10:03;4.05;;;1.60;;
73487;SDS011;61721;42.206;25.320;2022-09-09T05:12:32;6.40;;;1.60;;
73487;SDS011;61721;42.206;25.320;2022-09-09T05:15:01;6.18;;;1.70;;
73487;SDS011;61721;42.206;25.320;2022-09-09T05:17:31;5.40;;;1.63;;
73487;SDS011;61721;42.206;25.320;2022-09-09T05:20:00;3.67;;;1.60;;
73487;SDS011;61721;42.206;25.320;2022-09-09T05:22:30;3.60;;;1.60;;
73487;SDS011;61721;42.206;25.320;2022-09-09T05:24:59;4.25;;;1.52;;
73487;SDS011;61721;42.206;25.320;2022-09-09T05:27:28;5.97;;;1.70;;
73487;SDS011;61721;42.206;25.320;2022-09-09T05:29:57;3.47;;;1.50;;
73487;SDS011;61721;42.206;25.320;2022-09-09T05:32:26;5.32;;;1.42;;
73487;SDS011;61721;42.206;25.320;2022-09-09T05:34:55;4.45;;;1.85;;
73487;SDS011;61721;42.206;25.320;2022-09-09T05:37:24;8.38;;;1.63;;
73487;SDS011;61721;42.206;25.320;2022-09-09T05:39:52;5.78;;;1.60;;
73487;SDS011;61721;42.206;25.320;2022-09-09T05:42:21;7.10;;;1.60;;
73487;SDS011;61721;42.206;25.320;2022-09-09T05:44:49;3.97;;;1.58;;
73487;SDS011;61721;42.206;25.320;2022-09-09T05:47:20;5.20;;;1.80;;
73487;SDS011;61721;42.206;25.320;2022-09-09T05:49:49;4.90;;;1.67;;
73487;SDS011;61721;42.206;25.320;2022-09-09T05:52:19;6.53;;;1.80;;
73487;SDS011;61721;42.206;25.320;2022-09-09T05:54:47;4.72;;;1.60;;
73487;SDS011;61721;42.206;25.320;2022-09-09T05:57:16;4.78;;;1.80;;
73487;SDS011;61721;42.206;25.320;2022-09-09T05:59:45;3.70;;;1.58;;
73487;SDS011;61721;42.206;25.320;2022-09-09T06:02:14;5.63;;;1.67;;
73487;SDS011;61721;42.206;25.320;2022-09-09T06:04:42;5.20;;;1.55;;
73487;SDS011;61721;42.206;25.320;2022-09-09T06:07:11;4.90;;;1.60;;
73487;SDS011;61721;42.206;25.320;2022-09-09T06:09:42;6.28;;;1.80;;
73487;SDS011;61721;42.206;25.320;2022-09-09T06:12:11;4.25;;;1.52;;
73487;SDS011;61721;42.206;25.320;2022-09-09T06:14:39;5.80;;;1.52;;
73487;SDS011;61721;42.206;25.320;2022-09-09T06:17:07;4.03;;;1.48;;
73487;SDS011;61721;42.206;25.320;2022-09-09T06:19:36;4.53;;;1.58;;
73487;SDS011;61721;42.206;25.320;2022-09-09T06:22:05;4.93;;;1.77;;
73487;SDS011;61721;42.206;25.320;2022-09-09T06:24:33;3.90;;;1.70;;
73487;SDS011;61721;42.206;25.320;2022-09-09T06:27:04;3.97;;;1.60;;
73487;SDS011;61721;42.206;25.320;2022-09-09T06:29:33;7.15;;;1.48;;
73487;SDS011;61721;42.206;25.320;2022-09-09T06:32:02;5.50;;;1.70;;
73487;SDS011;61721;42.206;25.320;2022-09-09T06:34:30;3.88;;;1.67;;
73487;SDS011;61721;42.206;25.320;2022-09-09T06:36:59;4.18;;;1.55;;
73487;SDS011;61721;42.206;25.320;2022-09-09T06:39:27;4.15;;;1.58;;
73487;SDS011;61721;42.206;25.320;2022-09-09T06:41:56;4.07;;;1.60;;
73487;SDS011;61721;42.206;25.320;2022-09-09T06:44:26;6.75;;;1.90;;
73487;SDS011;61721;42.206;25.320;2022-09-09T06:46:54;6.30;;;1.65;;
73487;SDS011;61721;42.206;25.320;2022-09-09T06:49:23;5.65;;;1.40;;
73487;SDS011;61721;42.206;25.320;2022-09-09T06:51:51;3.55;;;1.50;;
73487;SDS011;61721;42.206;25.320;2022-09-09T06:54:20;7.95;;;1.60;;
73487;SDS011;61721;42.206;25.320;2022-09-09T06:56:50;5.25;;;1.70;;
73487;SDS011;61721;42.206;25.320;2022-09-09T06:59:18;5.03;;;1.70;;
73487;SDS011;61721;42.206;25.320;2022-09-09T07:01:48;7.30;;;1.75;;
73487;SDS011;61721;42.206;25.320;2022-09-09T07:04:18;8.63;;;1.80;;
73487;SDS011;61721;42.206;25.320;2022-09-09T07:06:46;4.35;;;1.80;;
73487;SDS011;61721;42.206;25.320;2022-09-09T07:09:15;3.85;;;1.67;;
73487;SDS011;61721;42.206;25.320;2022-09-09T07:11:44;4.90;;;1.90;;
73487;SDS011;61721;42.206;25.320;2022-09-09T07:14:13;4.75;;;1.60;;
73487;SDS011;61721;42.206;25.320;2022-09-09T07:16:42;4.90;;;1.80;;
73487;SDS011;61721;42.206;25.320;2022-09-09T07:19:13;5.63;;;1.98;;
73487;SDS011;61721;42.206;25.320;2022-09-09T07:21:42;6.38;;;1.88;;
73487;SDS011;61721;42.206;25.320;2022-09-09T07:24:11;5.88;;;1.95;;
73487;SDS011;61721;42.206;25.320;2022-09-09T07:26:40;5.75;;;1.85;;
73487;SDS011;61721;42.206;25.320;2022-09-09T07:29:08;4.45;;;1.67;;
73487;SDS011;61721;42.206;25.320;2022-09-09T07:31:41;3.90;;;1.63;;
73487;SDS011;61721;42.206;25.320;2022-09-09T07:34:09;4.78;;;1.80;;
73487;SDS011;61721;42.206;25.320;2022-09-09T07:36:40;5.57;;;2.40;;
73487;SDS011;61721;42.206;25.320;2022-09-09T07:39:09;7.03;;;2.03;;
73487;SDS011;61721;42.206;25.320;2022-09-09T07:41:40;4.07;;;1.67;;
73487;SDS011;61721;42.206;25.320;2022-09-09T07:44:11;5.22;;;2.10;;
73487;SDS011;61721;42.206;25.320;2022-09-09T07:46:40;4.93;;;1.98;;
73487;SDS011;61721;42.206;25.320;2022-09-09T07:49:10;6.22;;;2.15;;
73487;SDS011;61721;42.206;25.320;2022-09-09T07:51:40;5.18;;;2.00;;
73487;SDS011;61721;42.206;25.320;2022-09-09T07:54:11;5.20;;;1.95;;
73487;SDS011;61721;42.206;25.320;2022-09-09T07:56:42;4.95;;;2.00;;
73487;SDS011;61721;42.206;25.320;2022-09-09T07:59:10;6.57;;;2.28;;
73487;SDS011;61721;42.206;25.320;2022-09-09T08:01:39;4.75;;;2.00;;
73487;SDS011;61721;42.206;25.320;2022-09-09T08:04:11;6.20;;;2.03;;
73487;SDS011;61721;42.206;25.320;2022-09-09T08:06:44;7.40;;;1.80;;
73487;SDS011;61721;42.206;25.320;2022-09-09T08:09:14;6.72;;;1.90;;
73487;SDS011;61721;42.206;25.320;2022-09-09T08:11:42;4.25;;;2.00;;
73487;SDS011;61721;42.206;25.320;2022-09-09T08:14:11;5.25;;;2.20;;
73487;SDS011;61721;42.206;25.320;2022-09-09T08:19:10;3.78;;;1.92;;
73487;SDS011;61721;42.206;25.320;2022-09-09T08:21:43;6.57;;;2.03;;
73487;SDS011;61721;42.206;25.320;2022-09-09T08:24:12;7.75;;;2.70;;
73487;SDS011;61721;42.206;25.320;2022-09-09T08:26:42;7.43;;;2.60;;
73487;SDS011;61721;42.206;25.320;2022-09-09T08:29:12;5.38;;;2.40;;
73487;SDS011;61721;42.206;25.320;2022-09-09T08:31:42;5.47;;;2.22;;
73487;SDS011;61721;42.206;25.320;2022-09-09T08:34:12;12.65;;;2.38;;
73487;SDS011;61721;42.206;25.320;2022-09-09T08:36:43;6.20;;;2.15;;
73487;SDS011;61721;42.206;25.320;2022-09-09T08:39:13;6.03;;;2.25;;
73487;SDS011;61721;42.206;25.320;2022-09-09T08:44:53;8.35;;;2.15;;
73487;SDS011;61721;42.206;25.320;2022-09-09T08:47:33;5.57;;;2.20;;
73487;SDS011;61721;42.206;25.320;2022-09-09T08:50:17;5.90;;;2.28;;
73487;SDS011;61721;42.206;25.320;2022-09-09T08:52:59;4.10;;;2.03;;
73487;SDS011;61721;42.206;25.320;2022-09-09T08:55:35;8.98;;;2.75;;
73487;SDS011;61721;42.206;25.320;2022-09-09T08:58:11;3.88;;;2.03;;
73487;SDS011;61721;42.206;25.320;2022-09-09T09:00:49;6.97;;;2.63;;
73487;SDS011;61721;42.206;25.320;2022-09-09T09:03:30;11.55;;;2.67;;
73487;SDS011;61721;42.206;25.320;2022-09-09T09:06:13;7.55;;;2.30;;
73487;SDS011;61721;42.206;25.320;2022-09-09T09:08:58;5.25;;;2.42;;
73487;SDS011;61721;42.206;25.320;2022-09-09T09:11:34;5.90;;;2.20;;
73487;SDS011;61721;42.206;25.320;2022-09-09T09:14:07;5.32;;;2.30;;
73487;SDS011;61721;42.206;25.320;2022-09-09T09:16:41;6.30;;;2.13;;
73487;SDS011;61721;42.206;25.320;2022-09-09T09:19:16;5.53;;;2.35;;
73487;SDS011;61721;42.206;25.320;2022-09-09T09:21:50;4.40;;;2.30;;
73487;SDS011;61721;42.206;25.320;2022-09-09T09:24:25;5.45;;;2.00;;
73487;SDS011;61721;42.206;25.320;2022-09-09T09:26:59;7.40;;;2.60;;
73487;SDS011;61721;42.206;25.320;2022-09-09T09:29:36;4.65;;;2.28;;
73487;SDS011;61721;42.206;25.320;2022-09-09T09:32:07;6.63;;;2.33;;
73487;SDS011;61721;42.206;25.320;2022-09-09T09:34:40;7.30;;;2.22;;
73487;SDS011;61721;42.206;25.320;2022-09-09T09:37:12;5.40;;;2.40;;
73487;SDS011;61721;42.206;25.320;2022-09-09T09:39:47;5.05;;;2.20;;
73487;SDS011;61721;42.206;25.320;2022-09-09T09:42:17;5.45;;;2.40;;
73487;SDS011;61721;42.206;25.320;2022-09-09T09:44:45;4.50;;;2.25;;
73487;SDS011;61721;42.206;25.320;2022-09-09T09:47:15;7.32;;;2.55;;
73487;SDS011;61721;42.206;25.320;2022-09-09T09:49:51;5.85;;;2.50;;
73487;SDS011;61721;42.206;25.320;2022-09-09T09:52:21;4.82;;;2.63;;
73487;SDS011;61721;42.206;25.320;2022-09-09T09:54:53;6.03;;;2.72;;
73487;SDS011;61721;42.206;25.320;2022-09-09T09:57:24;6.13;;;2.50;;
73487;SDS011;61721;42.206;25.320;2022-09-09T10:00:03;5.03;;;2.90;;
73487;SDS011;61721;42.206;25.320;2022-09-09T10:02:40;5.35;;;3.33;;
73487;SDS011;61721;42.206;25.320;2022-09-09T10:05:13;5.68;;;2.65;;
73487;SDS011;61721;42.206;25.320;2022-09-09T10:07:43;5.00;;;2.58;;
73487;SDS011;61721;42.206;25.320;2022-09-09T10:10:15;7.15;;;2.63;;
73487;SDS011;61721;42.206;25.320;2022-09-09T10:12:55;5.00;;;2.58;;
73487;SDS011;61721;42.206;25.320;2022-09-09T10:15:36;6.78;;;2.65;;
73487;SDS011;61721;42.206;25.320;2022-09-09T10:18:19;4.43;;;2.30;;
73487;SDS011;61721;42.206;25.320;2022-09-09T10:21:00;7.38;;;2.63;;
73487;SDS011;61721;42.206;25.320;2022-09-09T10:23:42;5.72;;;2.40;;
73487;SDS011;61721;42.206;25.320;2022-09-09T10:26:30;4.97;;;2.35;;
73487;SDS011;61721;42.206;25.320;2022-09-09T10:29:23;4.25;;;2.45;;
73487;SDS011;61721;42.206;25.320;2022-09-09T10:32:10;4.13;;;2.28;;
73487;SDS011;61721;42.206;25.320;2022-09-09T10:35:02;5.22;;;2.80;;
73487;SDS011;61721;42.206;25.320;2022-09-09T10:37:41;5.57;;;2.85;;
73487;SDS011;61721;42.206;25.320;2022-09-09T10:40:26;6.00;;;2.60;;
73487;SDS011;61721;42.206;25.320;2022-09-09T10:43:03;7.90;;;3.20;;
73487;SDS011;61721;42.206;25.320;2022-09-09T10:45:45;5.20;;;2.50;;
73487;SDS011;61721;42.206;25.320;2022-09-09T10:48:26;6.25;;;2.63;;
73487;SDS011;61721;42.206;25.320;2022-09-09T10:51:10;3.65;;;2.47;;
73487;SDS011;61721;42.206;25.320;2022-09-09T10:53:54;7.57;;;3.08;;
73487;SDS011;61721;42.206;25.320;2022-09-09T10:56:36;5.72;;;2.60;;
73487;SDS011;61721;42.206;25.320;2022-09-09T10:59:09;9.02;;;2.88;;
73487;SDS011;61721;42.206;25.320;2022-09-09T11:01:45;7.15;;;2.95;;
73487;SDS011;61721;42.206;25.320;2022-09-09T11:04:21;5.40;;;2.70;;
73487;SDS011;61721;42.206;25.320;2022-09-09T11:06:52;5.38;;;2.72;;
73487;SDS011;61721;42.206;25.320;2022-09-09T11:09:23;6.15;;;2.58;;
73487;SDS011;61721;42.206;25.320;2022-09-09T11:11:57;4.88;;;2.22;;
73487;SDS011;61721;42.206;25.320;2022-09-09T11:14:31;5.05;;;2.80;;
73487;SDS011;61721;42.206;25.320;2022-09-09T11:17:06;4.63;;;2.75;;
73487;SDS011;61721;42.206;25.320;2022-09-09T11:19:39;5.32;;;3.20;;
73487;SDS011;61721;42.206;25.320;2022-09-09T11:22:14;7.28;;;2.75;;
73487;SDS011;61721;42.206;25.320;2022-09-09T11:24:50;6.72;;;2.72;;
73487;SDS011;61721;42.206;25.320;2022-09-09T11:27:28;5.85;;;2.70;;
73487;SDS011;61721;42.206;25.320;2022-09-09T11:30:11;7.43;;;2.60;;
73487;SDS011;61721;42.206;25.320;2022-09-09T11:32:56;6.25;;;2.45;;
73487;SDS011;61721;42.206;25.320;2022-09-09T11:35:34;4.18;;;2.70;;
73487;SDS011;61721;42.206;25.320;2022-09-09T11:38:18;5.15;;;2.88;;
73487;SDS011;61721;42.206;25.320;2022-09-09T11:40:54;4.57;;;2.55;;
73487;SDS011;61721;42.206;25.320;2022-09-09T11:43:27;4.72;;;2.80;;
73487;SDS011;61721;42.206;25.320;2022-09-09T11:46:00;7.15;;;2.97;;
73487;SDS011;61721;42.206;25.320;2022-09-09T11:48:32;8.00;;;2.88;;
73487;SDS011;61721;42.206;25.320;2022-09-09T11:51:03;7.32;;;2.70;;
73487;SDS011;61721;42.206;25.320;2022-09-09T11:53:34;4.55;;;2.90;;
73487;SDS011;61721;42.206;25.320;2022-09-09T11:56:23;5.55;;;2.80;;
73487;SDS011;61721;42.206;25.320;2022-09-09T11:58:55;4.97;;;2.58;;
73487;SDS011;61721;42.206;25.320;2022-09-09T12:01:36;6.15;;;2.70;;
73487;SDS011;61721;42.206;25.320;2022-09-09T12:04:15;6.50;;;2.60;;
73487;SDS011;61721;42.206;25.320;2022-09-09T12:06:59;7.45;;;2.55;;
73487;SDS011;61721;42.206;25.320;2022-09-09T12:09:36;7.00;;;2.70;;
73487;SDS011;61721;42.206;25.320;2022-09-09T12:12:23;5.03;;;2.70;;
73487;SDS011;61721;42.206;25.320;2022-09-09T12:15:16;7.20;;;2.83;;
73487;SDS011;61721;42.206;25.320;2022-09-09T12:17:53;4.47;;;2.80;;
73487;SDS011;61721;42.206;25.320;2022-09-09T12:20:26;5.05;;;2.67;;
73487;SDS011;61721;42.206;25.320;2022-09-09T12:23:14;6.60;;;2.58;;
73487;SDS011;61721;42.206;25.320;2022-09-09T12:26:00;8.52;;;2.75;;
73487;SDS011;61721;42.206;25.320;2022-09-09T12:28:49;5.10;;;2.70;;
73487;SDS011;61721;42.206;25.320;2022-09-09T12:31:24;4.75;;;2.42;;
73487;SDS011;61721;42.206;25.320;2022-09-09T12:34:04;5.32;;;2.67;;
73487;SDS011;61721;42.206;25.320;2022-09-09T12:36:38;5.80;;;2.28;;
73487;SDS011;61721;42.206;25.320;2022-09-09T12:39:15;6.05;;;2.50;;
73487;SDS011;61721;42.206;25.320;2022-09-09T12:41:52;4.75;;;2.53;;
73487;SDS011;61721;42.206;25.320;2022-09-09T12:44:26;5.75;;;2.35;;
73487;SDS011;61721;42.206;25.320;2022-09-09T12:46:59;5.03;;;2.10;;
73487;SDS011;61721;42.206;25.320;2022-09-09T12:49:35;5.55;;;2.33;;
73487;SDS011;61721;42.206;25.320;2022-09-09T12:52:08;3.97;;;2.13;;
73487;SDS011;61721;42.206;25.320;2022-09-09T12:54:44;8.00;;;2.28;;
73487;SDS011;61721;42.206;25.320;2022-09-09T12:57:14;6.07;;;2.30;;
73487;SDS011;61721;42.206;25.320;2022-09-09T12:59:43;4.32;;;2.00;;
73487;SDS011;61721;42.206;25.320;2022-09-09T13:02:20;5.45;;;2.20;;
73487;SDS011;61721;42.206;25.320;2022-09-09T13:04:51;5.93;;;1.73;;
73487;SDS011;61721;42.206;25.320;2022-09-09T13:07:21;4.45;;;1.95;;
73487;SDS011;61721;42.206;25.320;2022-09-09T13:09:53;5.70;;;2.10;;
73487;SDS011;61721;42.206;25.320;2022-09-09T13:12:22;4.47;;;2.10;;
73487;SDS011;61721;42.206;25.320;2022-09-09T13:14:52;5.47;;;1.95;;
73487;SDS011;61721;42.206;25.320;2022-09-09T13:17:23;4.07;;;1.90;;
73487;SDS011;61721;42.206;25.320;2022-09-09T13:19:55;4.13;;;1.80;;
73487;SDS011;61721;42.206;25.320;2022-09-09T13:22:27;4.35;;;1.83;;
73487;SDS011;61721;42.206;25.320;2022-09-09T13:25:00;5.35;;;2.03;;
73487;SDS011;61721;42.206;25.320;2022-09-09T13:27:30;5.05;;;1.90;;
73487;SDS011;61721;42.206;25.320;2022-09-09T13:30:01;6.53;;;1.67;;
73487;SDS011;61721;42.206;25.320;2022-09-09T13:32:59;4.85;;;1.80;;
73487;SDS011;61721;42.206;25.320;2022-09-09T13:35:34;4.65;;;2.13;;
73487;SDS011;61721;42.206;25.320;2022-09-09T13:38:17;4.25;;;2.03;;
73487;SDS011;61721;42.206;25.320;2022-09-09T13:40:52;5.00;;;1.65;;
73487;SDS011;61721;42.206;25.320;2022-09-09T13:43:25;4.90;;;1.73;;
73487;SDS011;61721;42.206;25.320;2022-09-09T13:45:56;4.32;;;1.70;;
73487;SDS011;61721;42.206;25.320;2022-09-09T13:48:26;4.55;;;1.92;;
73487;SDS011;61721;42.206;25.320;2022-09-09T13:50:58;4.45;;;1.80;;
73487;SDS011;61721;42.206;25.320;2022-09-09T13:53:29;6.38;;;2.00;;
73487;SDS011;61721;42.206;25.320;2022-09-09T13:56:01;5.50;;;1.80;;
73487;SDS011;61721;42.206;25.320;2022-09-09T13:58:30;4.68;;;1.75;;
73487;SDS011;61721;42.206;25.320;2022-09-09T14:00:58;5.47;;;1.80;;
73487;SDS011;61721;42.206;25.320;2022-09-09T14:03:30;7.18;;;1.90;;
73487;SDS011;61721;42.206;25.320;2022-09-09T14:06:00;3.75;;;2.05;;
73487;SDS011;61721;42.206;25.320;2022-09-09T14:08:28;3.50;;;1.52;;
73487;SDS011;61721;42.206;25.320;2022-09-09T14:11:03;5.47;;;1.80;;
73487;SDS011;61721;42.206;25.320;2022-09-09T14:13:32;5.68;;;1.80;;
73487;SDS011;61721;42.206;25.320;2022-09-09T14:16:06;3.83;;;1.60;;
73487;SDS011;61721;42.206;25.320;2022-09-09T14:18:37;5.05;;;1.90;;
73487;SDS011;61721;42.206;25.320;2022-09-09T14:21:08;8.95;;;1.92;;
73487;SDS011;61721;42.206;25.320;2022-09-09T14:23:37;4.47;;;2.00;;
73487;SDS011;61721;42.206;25.320;2022-09-09T14:28:40;6.10;;;2.00;;
73487;SDS011;61721;42.206;25.320;2022-09-09T14:31:12;4.97;;;1.80;;
73487;SDS011;61721;42.206;25.320;2022-09-09T14:33:41;6.25;;;1.90;;
73487;SDS011;61721;42.206;25.320;2022-09-09T14:36:11;5.28;;;1.80;;
73487;SDS011;61721;42.206;25.320;2022-09-09T14:38:39;6.00;;;1.70;;
73487;SDS011;61721;42.206;25.320;2022-09-09T14:41:10;5.05;;;1.70;;
73487;SDS011;61721;42.206;25.320;2022-09-09T14:43:44;7.60;;;1.80;;
73487;SDS011;61721;42.206;25.320;2022-09-09T14:46:14;7.47;;;1.90;;
73487;SDS011;61721;42.206;25.320;2022-09-09T14:48:48;6.75;;;1.80;;
73487;SDS011;61721;42.206;25.320;2022-09-09T14:51:22;5.10;;;1.88;;
73487;SDS011;61721;42.206;25.320;2022-09-09T14:53:54;4.47;;;1.80;;
73487;SDS011;61721;42.206;25.320;2022-09-09T14:56:24;8.15;;;1.92;;
73487;SDS011;61721;42.206;25.320;2022-09-09T14:58:58;6.13;;;2.08;;
73487;SDS011;61721;42.206;25.320;2022-09-09T15:01:29;6.15;;;1.90;;
73487;SDS011;61721;42.206;25.320;2022-09-09T15:03:58;4.22;;;1.77;;
73487;SDS011;61721;42.206;25.320;2022-09-09T15:06:31;5.78;;;1.95;;
73487;SDS011;61721;42.206;25.320;2022-09-09T15:09:03;6.82;;;1.83;;
73487;SDS011;61721;42.206;25.320;2022-09-09T15:11:33;5.28;;;1.90;;
73487;SDS011;61721;42.206;25.320;2022-09-09T15:14:04;7.82;;;1.80;;
73487;SDS011;61721;42.206;25.320;2022-09-09T15:19:01;5.68;;;2.05;;
73487;SDS011;61721;42.206;25.320;2022-09-09T15:21:33;7.32;;;1.85;;
73487;SDS011;61721;42.206;25.320;2022-09-09T15:24:03;4.40;;;1.80;;